createdAt,value
2019-01-26T00:00:46.993Z,29.80
2019-01-26T00:01:47.003Z,35.20
2019-01-26T00:02:47.007Z,32.80
2019-01-26T00:03:47.020Z,35.00
2019-01-26T00:04:47.026Z,34.00
2019-01-26T00:05:47.034Z,31.90
2019-01-26T00:06:47.049Z,33.40
2019-01-26T00:07:47.052Z,33.80
2019-01-26T00:08:47.062Z,34.00
2019-01-26T00:09:47.072Z,35.40
2019-01-26T00:10:47.077Z,33.00
2019-01-26T00:11:47.087Z,34.20
2019-01-26T00:12:47.096Z,33.70
2019-01-26T00:13:47.107Z,35.60
2019-01-26T00:14:47.113Z,35.30
2019-01-26T00:15:47.125Z,35.60
2019-01-26T00:16:47.132Z,34.70
2019-01-26T00:17:47.164Z,36.00
2019-01-26T00:18:47.148Z,39.60
2019-01-26T00:19:47.159Z,35.40
2019-01-26T00:20:47.184Z,34.40
2019-01-26T00:21:47.172Z,37.10
2019-01-26T00:22:47.184Z,37.30
2019-01-26T00:23:47.193Z,35.60
2019-01-26T00:24:47.204Z,38.50
2019-01-26T00:25:47.209Z,36.00
2019-01-26T00:26:47.222Z,37.00
2019-01-26T00:27:47.230Z,36.50
2019-01-26T00:28:47.242Z,35.30
2019-01-26T00:29:47.250Z,32.80
2019-01-26T00:30:47.256Z,31.30
2019-01-26T00:31:47.267Z,35.30
2019-01-26T00:32:47.278Z,34.90
2019-01-26T00:33:47.284Z,33.20
2019-01-26T00:34:47.294Z,35.60
2019-01-26T00:35:47.299Z,33.30
2019-01-26T00:36:47.309Z,37.50
2019-01-26T00:37:47.344Z,35.60
2019-01-26T00:38:47.324Z,36.00
2019-01-26T00:39:47.334Z,35.40
2019-01-26T00:40:47.342Z,39.50
2019-01-26T00:41:47.354Z,33.10
2019-01-26T00:42:47.362Z,38.90
2019-01-26T00:43:47.374Z,35.40
2019-01-26T00:44:47.381Z,38.20
2019-01-26T00:45:47.392Z,39.90
2019-01-26T00:46:47.396Z,38.30
2019-01-26T00:47:47.412Z,42.00
2019-01-26T00:48:47.416Z,44.50
2019-01-26T00:49:47.427Z,40.20
2019-01-26T00:50:47.434Z,42.60
2019-01-26T00:51:47.446Z,40.70
2019-01-26T00:52:47.454Z,46.40
2019-01-26T00:53:47.461Z,42.30
2019-01-26T00:54:47.473Z,45.20
2019-01-26T00:55:47.498Z,47.40
2019-01-26T00:56:47.489Z,54.30
2019-01-26T00:57:47.497Z,51.80
2019-01-26T00:58:47.504Z,48.90
2019-01-26T00:59:47.517Z,49.20
2019-01-26T01:00:47.527Z,54.00
2019-01-26T01:01:47.533Z,52.30
2019-01-26T01:02:47.546Z,52.90
2019-01-26T01:03:47.553Z,56.70
2019-01-26T01:04:47.559Z,57.40
2019-01-26T01:05:47.570Z,59.10
2019-01-26T01:06:47.582Z,55.80
2019-01-26T01:07:47.599Z,62.10
2019-01-26T01:08:47.601Z,57.00
2019-01-26T01:09:47.675Z,61.20
2019-01-26T01:10:47.617Z,54.20
2019-01-26T01:11:47.625Z,59.50
2019-01-26T01:12:47.632Z,61.90
2019-01-26T01:13:47.641Z,64.90
2019-01-26T01:14:47.656Z,68.30
2019-01-26T01:15:47.659Z,63.40
2019-01-26T01:16:47.670Z,66.70
2019-01-26T01:17:47.683Z,68.80
2019-01-26T01:18:47.732Z,69.60
2019-01-26T01:19:47.702Z,70.90
2019-01-26T01:20:47.737Z,67.40
2019-01-26T01:21:47.738Z,68.10
2019-01-26T01:22:47.726Z,70.80
2019-01-26T01:23:47.739Z,68.30
2019-01-26T01:24:47.739Z,66.80
2019-01-26T01:25:47.743Z,66.80
2019-01-26T01:26:47.754Z,73.50
2019-01-26T01:27:47.762Z,72.90
2019-01-26T01:28:47.769Z,76.50
2019-01-26T01:29:47.787Z,72.50
2019-01-26T01:30:47.791Z,71.50
2019-01-26T01:31:47.799Z,75.30
2019-01-26T01:32:47.809Z,70.80
2019-01-26T01:33:47.819Z,76.10
2019-01-26T01:34:47.839Z,71.30
2019-01-26T01:35:47.841Z,73.60
2019-01-26T01:36:47.844Z,77.00
2019-01-26T01:37:47.851Z,76.20
2019-01-26T01:38:47.862Z,76.60
2019-01-26T01:39:47.871Z,74.80
2019-01-26T01:40:47.886Z,74.00
2019-01-26T01:41:47.889Z,75.70
2019-01-26T01:42:47.901Z,81.20
2019-01-26T01:43:47.910Z,82.80
2019-01-26T01:44:47.920Z,71.50
2019-01-26T01:45:47.928Z,77.10
2019-01-26T01:46:47.939Z,70.90
2019-01-26T01:47:47.999Z,79.30
2019-01-26T01:48:47.956Z,86.10
2019-01-26T01:49:47.976Z,82.40
2019-01-26T01:50:47.976Z,83.90
2019-01-26T01:51:47.987Z,86.00
2019-01-26T01:52:47.995Z,91.60
2019-01-26T01:53:48.020Z,92.10
2019-01-26T01:54:48.012Z,87.40
2019-01-26T01:55:48.027Z,89.60
2019-01-26T01:56:48.029Z,95.50
2019-01-26T01:57:48.039Z,100.50
2019-01-26T01:58:48.050Z,110.60
2019-01-26T01:59:48.065Z,109.40
2019-01-26T02:00:48.070Z,101.80
2019-01-26T02:01:48.077Z,103.50
2019-01-26T02:02:48.129Z,101.20
2019-01-26T02:03:48.099Z,116.20
2019-01-26T02:04:48.107Z,120.50
2019-01-26T02:05:48.119Z,118.00
2019-01-26T02:06:48.124Z,119.10
2019-01-26T02:07:48.138Z,116.30
2019-01-26T02:08:48.143Z,120.60
2019-01-26T02:09:48.154Z,124.80
2019-01-26T02:10:48.163Z,136.90
2019-01-26T02:11:48.174Z,143.80
2019-01-26T02:12:48.182Z,135.00
2019-01-26T02:13:48.192Z,126.70
2019-01-26T02:14:48.204Z,145.30
2019-01-26T02:15:48.213Z,152.10
2019-01-26T02:16:50.147Z,157.70
2019-01-26T02:17:48.230Z,146.30
2019-01-26T02:18:48.250Z,137.10
2019-01-26T02:19:48.252Z,152.40
2019-01-26T02:20:48.264Z,145.50
2019-01-26T02:21:48.271Z,147.40
2019-01-26T02:22:48.283Z,141.00
2019-01-26T02:23:48.299Z,143.10
2019-01-26T02:24:48.299Z,153.60
2019-01-26T02:25:48.377Z,155.10
2019-01-26T02:26:48.318Z,169.20
2019-01-26T02:27:48.326Z,162.20
2019-01-26T02:28:48.337Z,158.10
2019-01-26T02:29:48.347Z,152.20
2019-01-26T02:30:48.355Z,162.00
2019-01-26T02:31:48.364Z,156.60
2019-01-26T02:32:48.376Z,165.60
2019-01-26T02:33:48.388Z,163.00
2019-01-26T02:34:48.391Z,182.50
2019-01-26T02:35:48.405Z,173.00
2019-01-26T02:36:48.412Z,172.90
2019-01-26T02:37:48.423Z,194.70
2019-01-26T02:38:48.450Z,198.60
2019-01-26T02:39:48.490Z,180.20
2019-01-26T02:40:48.449Z,179.40
2019-01-26T02:41:48.463Z,182.30
2019-01-26T02:42:48.477Z,178.90
2019-01-26T02:43:48.485Z,183.20
2019-01-26T02:44:48.526Z,193.80
2019-01-26T02:45:48.500Z,189.30
2019-01-26T02:46:48.511Z,181.30
2019-01-26T02:47:48.523Z,189.70
2019-01-26T02:48:48.530Z,191.20
2019-01-26T02:49:48.540Z,179.90
2019-01-26T02:50:48.557Z,180.20
2019-01-26T02:51:48.557Z,192.70
2019-01-26T02:52:48.568Z,195.40
2019-01-26T02:53:48.577Z,185.80
2019-01-26T02:54:48.591Z,193.00
2019-01-26T02:55:48.748Z,196.50
2019-01-26T02:56:48.607Z,204.80
2019-01-26T02:57:48.621Z,199.90
2019-01-26T02:58:48.625Z,199.50
2019-01-26T02:59:48.635Z,178.40
2019-01-26T03:00:48.648Z,181.80
2019-01-26T03:01:48.656Z,200.30
2019-01-26T03:02:48.662Z,194.40
2019-01-26T03:03:48.676Z,197.10
2019-01-26T03:04:48.686Z,193.90
2019-01-26T03:05:48.693Z,190.60
2019-01-26T03:06:48.704Z,190.20
2019-01-26T03:07:48.716Z,193.20
2019-01-26T03:08:48.723Z,195.70
2019-01-26T03:09:48.732Z,201.90
2019-01-26T03:10:48.741Z,177.80
2019-01-26T03:11:48.754Z,189.90
2019-01-26T03:12:48.760Z,181.00
2019-01-26T03:13:48.772Z,207.90
2019-01-26T03:14:48.780Z,186.40
2019-01-26T03:15:48.797Z,226.40
2019-01-26T03:16:48.804Z,222.80
2019-01-26T03:17:48.816Z,197.80
2019-01-26T03:18:48.828Z,205.60
2019-01-26T03:19:48.832Z,212.40
2019-01-26T03:20:48.837Z,219.50
2019-01-26T03:21:48.851Z,214.80
2019-01-26T03:22:48.867Z,218.30
2019-01-26T03:23:48.869Z,207.30
2019-01-26T03:24:48.877Z,212.80
2019-01-26T03:25:48.889Z,227.10
2019-01-26T03:26:48.900Z,215.20
2019-01-26T03:27:48.908Z,188.90
2019-01-26T03:28:48.925Z,228.70
2019-01-26T03:29:48.928Z,215.70
2019-01-26T03:30:48.939Z,211.70
2019-01-26T03:31:48.952Z,215.80
2019-01-26T03:32:48.961Z,213.40
2019-01-26T03:33:48.964Z,208.30
2019-01-26T03:34:48.975Z,207.70
2019-01-26T03:35:48.986Z,214.30
2019-01-26T03:36:49.003Z,206.90
2019-01-26T03:37:49.012Z,211.00
2019-01-26T03:38:49.017Z,196.00
2019-01-26T03:39:49.026Z,204.80
2019-01-26T03:40:49.034Z,186.00
2019-01-26T03:41:49.050Z,184.80
2019-01-26T03:42:49.053Z,187.20
2019-01-26T03:43:49.073Z,187.40
2019-01-26T03:44:49.076Z,170.20
2019-01-26T03:45:49.083Z,173.20
2019-01-26T03:46:49.097Z,170.00
2019-01-26T03:47:49.110Z,167.80
2019-01-26T03:48:49.117Z,177.40
2019-01-26T03:49:49.124Z,173.70
2019-01-26T03:50:49.134Z,155.10
2019-01-26T03:51:49.152Z,149.90
2019-01-26T03:52:49.158Z,152.30
2019-01-26T03:53:49.161Z,148.10
2019-01-26T03:54:49.175Z,139.70
2019-01-26T03:55:49.182Z,147.40
2019-01-26T03:56:49.194Z,140.90
2019-01-26T03:57:49.216Z,135.00
2019-01-26T03:58:49.212Z,139.70
2019-01-26T03:59:49.435Z,146.70
2019-01-26T04:00:49.233Z,143.30
2019-01-26T04:01:49.244Z,135.90
2019-01-26T04:02:49.249Z,143.10
2019-01-26T04:03:49.262Z,143.70
2019-01-26T04:04:49.272Z,147.40
2019-01-26T04:05:49.281Z,152.80
2019-01-26T04:06:49.290Z,137.00
2019-01-26T04:07:49.304Z,142.70
2019-01-26T04:08:49.309Z,138.00
2019-01-26T04:09:49.320Z,151.90
2019-01-26T04:10:49.328Z,143.20
2019-01-26T04:11:49.343Z,136.10
2019-01-26T04:12:49.350Z,152.80
2019-01-26T04:13:49.358Z,137.80
2019-01-26T04:14:49.369Z,137.40
2019-01-26T04:15:49.380Z,136.20
2019-01-26T04:16:49.391Z,142.60
2019-01-26T04:17:49.405Z,140.10
2019-01-26T04:18:49.408Z,141.90
2019-01-26T04:19:49.416Z,131.60
2019-01-26T04:20:49.426Z,138.60
2019-01-26T04:21:49.435Z,143.00
2019-01-26T04:22:49.448Z,135.60
2019-01-26T04:23:49.453Z,143.20
2019-01-26T04:24:49.479Z,136.30
2019-01-26T04:25:49.477Z,140.30
2019-01-26T04:26:49.486Z,140.00
2019-01-26T04:27:49.498Z,137.10
2019-01-26T04:28:49.508Z,145.80
2019-01-26T04:29:49.516Z,140.10
2019-01-26T04:30:49.524Z,137.50
2019-01-26T04:31:49.542Z,137.30
2019-01-26T04:32:49.539Z,144.60
2019-01-26T04:33:49.553Z,119.20
2019-01-26T04:34:49.564Z,147.20
2019-01-26T04:35:49.572Z,143.20
2019-01-26T04:36:49.580Z,145.00
2019-01-26T04:37:49.593Z,142.30
2019-01-26T04:38:49.599Z,135.20
2019-01-26T04:39:49.610Z,148.90
2019-01-26T04:40:49.618Z,139.00
2019-01-26T04:41:49.631Z,134.00
2019-01-26T04:42:49.642Z,119.60
2019-01-26T04:43:49.654Z,140.40
2019-01-26T04:44:49.663Z,132.80
2019-01-26T04:45:49.676Z,125.20
2019-01-26T04:46:49.682Z,138.30
2019-01-26T04:47:49.693Z,132.60
2019-01-26T04:48:49.703Z,130.00
2019-01-26T04:49:49.709Z,130.70
2019-01-26T04:50:49.727Z,140.80
2019-01-26T04:51:49.729Z,137.70
2019-01-26T04:52:49.742Z,143.50
2019-01-26T04:53:49.783Z,145.70
2019-01-26T04:54:49.756Z,143.60
2019-01-26T04:55:49.788Z,145.60
2019-01-26T04:56:49.785Z,130.00
2019-01-26T04:57:49.784Z,129.10
2019-01-26T04:58:49.793Z,120.40
2019-01-26T04:59:49.812Z,130.60
2019-01-26T05:00:49.840Z,116.10
2019-01-26T05:01:49.824Z,121.80
2019-01-26T05:02:49.832Z,126.60
2019-01-26T05:03:49.845Z,120.80
2019-01-26T05:04:49.850Z,125.70
2019-01-26T05:05:49.865Z,131.70
2019-01-26T05:06:49.876Z,136.30
2019-01-26T05:07:49.892Z,127.40
2019-01-26T05:08:49.893Z,109.50
2019-01-26T05:09:49.903Z,121.60
2019-01-26T05:10:49.918Z,116.50
2019-01-26T05:11:49.923Z,129.40
2019-01-26T05:12:49.948Z,119.10
2019-01-26T05:13:49.943Z,125.70
2019-01-26T05:14:49.953Z,116.60
2019-01-26T05:15:49.961Z,128.20
2019-01-26T05:16:49.972Z,124.70
2019-01-26T05:17:49.983Z,118.90
2019-01-26T05:18:49.991Z,118.20
2019-01-26T05:19:50.002Z,105.60
2019-01-26T05:20:50.011Z,115.90
2019-01-26T05:21:50.027Z,121.00
2019-01-26T05:22:50.032Z,114.10
2019-01-26T05:23:50.041Z,123.80
2019-01-26T05:24:50.051Z,121.50
2019-01-26T05:25:50.061Z,129.70
2019-01-26T05:26:50.071Z,118.80
2019-01-26T05:27:50.083Z,127.10
2019-01-26T05:28:50.088Z,123.60
2019-01-26T05:29:50.102Z,120.60
2019-01-26T05:30:50.413Z,121.30
2019-01-26T05:31:50.146Z,128.00
2019-01-26T05:32:50.135Z,120.10
2019-01-26T05:33:50.141Z,121.20
2019-01-26T05:34:50.176Z,113.80
2019-01-26T05:35:50.159Z,128.00
2019-01-26T05:36:50.173Z,121.30
2019-01-26T05:37:50.183Z,130.80
2019-01-26T05:38:50.203Z,131.00
2019-01-26T05:39:50.201Z,104.80
2019-01-26T05:40:50.206Z,122.80
2019-01-26T05:41:50.218Z,115.40
2019-01-26T05:42:50.234Z,113.20
2019-01-26T05:43:50.242Z,118.20
2019-01-26T05:44:50.251Z,121.50
2019-01-26T05:45:50.258Z,117.60
2019-01-26T05:46:50.266Z,127.50
2019-01-26T05:47:50.282Z,122.20
2019-01-26T05:48:50.296Z,125.50
2019-01-26T05:49:50.311Z,127.70
2019-01-26T05:50:50.316Z,131.10
2019-01-26T05:51:50.319Z,125.90
2019-01-26T05:52:50.329Z,128.10
2019-01-26T05:53:50.340Z,125.70
2019-01-26T05:54:50.362Z,123.40
2019-01-26T05:55:50.358Z,134.70
2019-01-26T05:56:50.373Z,132.90
2019-01-26T05:57:50.384Z,141.20
2019-01-26T05:58:50.406Z,136.20
2019-01-26T05:59:50.399Z,142.40
2019-01-26T06:00:50.408Z,135.40
2019-01-26T06:01:50.424Z,139.60
2019-01-26T06:02:50.432Z,131.40
2019-01-26T06:03:50.439Z,132.40
2019-01-26T06:04:50.447Z,145.70
2019-01-26T06:05:50.462Z,138.50
2019-01-26T06:06:50.471Z,151.00
2019-01-26T06:07:50.482Z,143.10
2019-01-26T06:08:50.489Z,150.50
2019-01-26T06:09:50.497Z,144.50
2019-01-26T06:10:50.508Z,146.20
2019-01-26T06:11:50.524Z,133.70
2019-01-26T06:12:50.531Z,135.30
2019-01-26T06:13:50.543Z,147.90
2019-01-26T06:14:50.551Z,129.90
2019-01-26T06:15:50.562Z,147.20
2019-01-26T06:16:50.569Z,144.10
2019-01-26T06:17:54.946Z,145.70
2019-01-26T06:18:50.591Z,148.70
2019-01-26T06:19:50.606Z,156.60
2019-01-26T06:20:50.608Z,150.30
2019-01-26T06:21:50.623Z,137.60
2019-01-26T06:22:50.665Z,160.70
2019-01-26T06:23:50.647Z,158.70
2019-01-26T06:24:50.649Z,143.40
2019-01-26T06:25:50.658Z,149.60
2019-01-26T06:26:50.671Z,153.40
2019-01-26T06:27:50.682Z,152.60
2019-01-26T06:28:50.688Z,137.60
2019-01-26T06:29:50.701Z,155.20
2019-01-26T06:30:50.731Z,143.80
2019-01-26T06:31:50.722Z,149.80
2019-01-26T06:32:50.732Z,157.00
2019-01-26T06:33:50.743Z,140.30
2019-01-26T06:34:50.749Z,138.00
2019-01-26T06:35:50.759Z,138.60
2019-01-26T06:36:50.770Z,137.70
2019-01-26T06:37:50.778Z,139.90
2019-01-26T06:38:50.791Z,143.20
2019-01-26T06:39:50.806Z,145.20
2019-01-26T06:40:50.810Z,144.40
2019-01-26T06:41:50.822Z,138.30
2019-01-26T06:42:50.835Z,147.30
2019-01-26T06:43:50.842Z,135.10
2019-01-26T06:44:50.848Z,125.00
2019-01-26T06:45:50.860Z,133.90
2019-01-26T06:46:50.872Z,134.80
2019-01-26T06:47:50.884Z,133.00
2019-01-26T06:48:50.891Z,122.80
2019-01-26T06:49:50.910Z,141.70
2019-01-26T06:50:50.911Z,139.50
2019-01-26T06:51:50.923Z,133.50
2019-01-26T06:52:50.928Z,133.40
2019-01-26T06:53:50.940Z,134.60
2019-01-26T06:54:50.961Z,133.50
2019-01-26T06:55:50.962Z,144.40
2019-01-26T06:56:50.979Z,139.10
2019-01-26T06:57:50.982Z,133.40
2019-01-26T06:58:50.994Z,145.50
2019-01-26T06:59:51.008Z,153.00
2019-01-26T07:00:51.010Z,137.10
2019-01-26T07:01:51.028Z,143.80
2019-01-26T07:02:51.045Z,146.10
2019-01-26T07:03:51.041Z,144.00
2019-01-26T07:04:51.054Z,143.90
2019-01-26T07:05:51.063Z,135.60
2019-01-26T07:06:51.075Z,139.10
2019-01-26T07:07:51.084Z,149.30
2019-01-26T07:08:51.094Z,128.20
2019-01-26T07:09:51.103Z,130.30
2019-01-26T07:10:51.117Z,138.90
2019-01-26T07:11:51.131Z,120.60
2019-01-26T07:12:51.134Z,129.10
2019-01-26T07:13:51.143Z,122.20
2019-01-26T07:14:51.158Z,127.60
2019-01-26T07:15:51.164Z,123.30
2019-01-26T07:16:51.174Z,121.80
2019-01-26T07:17:51.183Z,115.60
2019-01-26T07:18:51.196Z,114.70
2019-01-26T07:19:51.209Z,109.60
2019-01-26T07:20:51.240Z,119.20
2019-01-26T07:21:51.229Z,117.40
2019-01-26T07:22:51.236Z,103.50
2019-01-26T07:23:51.247Z,106.70
2019-01-26T07:24:51.258Z,98.90
2019-01-26T07:25:51.262Z,106.10
2019-01-26T07:26:51.274Z,107.30
2019-01-26T07:27:51.284Z,111.60
2019-01-26T07:28:51.295Z,96.40
2019-01-26T07:29:51.306Z,87.50
2019-01-26T07:30:51.314Z,103.90
2019-01-26T07:31:51.329Z,98.50
2019-01-26T07:32:51.336Z,96.10
2019-01-26T07:33:51.349Z,88.40
2019-01-26T07:34:51.359Z,103.10
2019-01-26T07:35:51.364Z,93.00
2019-01-26T07:36:51.378Z,96.70
2019-01-26T07:37:51.384Z,86.10
2019-01-26T07:38:51.400Z,92.90
2019-01-26T07:39:51.406Z,98.30
2019-01-26T07:40:51.417Z,92.00
2019-01-26T07:41:51.429Z,93.90
2019-01-26T07:42:51.438Z,93.80
2019-01-26T07:43:51.448Z,92.30
2019-01-26T07:44:51.457Z,89.50
2019-01-26T07:45:51.471Z,86.80
2019-01-26T07:46:51.488Z,89.60
2019-01-26T07:47:51.486Z,85.90
2019-01-26T07:48:51.495Z,81.60
2019-01-26T07:49:51.509Z,85.50
2019-01-26T07:50:51.517Z,83.60
2019-01-26T07:51:51.531Z,91.80
2019-01-26T07:52:51.540Z,83.40
2019-01-26T07:53:51.557Z,79.80
2019-01-26T07:54:51.563Z,84.30
2019-01-26T07:55:51.574Z,77.70
2019-01-26T07:56:51.580Z,82.20
2019-01-26T07:57:51.590Z,77.80
2019-01-26T07:58:51.609Z,80.00
2019-01-26T07:59:51.613Z,75.80
2019-01-26T08:00:51.623Z,82.70
2019-01-26T08:01:51.636Z,80.50
2019-01-26T08:02:51.641Z,75.40
2019-01-26T08:03:51.651Z,79.10
2019-01-26T08:04:51.664Z,78.20
2019-01-26T08:05:51.670Z,74.30
2019-01-26T08:06:51.691Z,73.70
2019-01-26T08:07:51.690Z,69.40
2019-01-26T08:08:51.705Z,66.90
2019-01-26T08:09:51.712Z,77.40
2019-01-26T08:10:51.722Z,75.00
2019-01-26T08:11:51.734Z,72.40
2019-01-26T08:12:51.744Z,71.40
2019-01-26T08:13:51.768Z,70.80
2019-01-26T08:14:51.765Z,72.90
2019-01-26T08:15:51.771Z,68.70
2019-01-26T08:16:51.785Z,74.90
2019-01-26T08:17:51.793Z,77.90
2019-01-26T08:18:51.805Z,68.70
2019-01-26T08:19:51.820Z,70.90
2019-01-26T08:20:51.825Z,69.50
2019-01-26T08:21:51.831Z,68.20
2019-01-26T08:22:51.847Z,58.30
2019-01-26T08:23:51.855Z,71.90
2019-01-26T08:25:51.878Z,72.20
2019-01-26T08:26:51.886Z,69.80
2019-01-26T08:27:51.896Z,61.90
2019-01-26T08:28:51.907Z,61.00
2019-01-26T08:29:51.914Z,63.20
2019-01-26T08:30:51.928Z,62.40
2019-01-26T08:31:51.938Z,62.60
2019-01-26T08:32:51.948Z,65.30
2019-01-26T08:33:51.958Z,62.50
2019-01-26T08:34:51.967Z,68.60
2019-01-26T08:35:51.978Z,65.00
2019-01-26T08:36:51.985Z,68.60
2019-01-26T08:37:51.996Z,64.40
2019-01-26T08:38:52.009Z,59.80
2019-01-26T08:39:52.027Z,60.20
2019-01-26T08:40:52.027Z,64.60
2019-01-26T08:41:52.040Z,64.10
2019-01-26T08:42:52.051Z,67.90
2019-01-26T08:43:52.062Z,63.80
2019-01-26T08:44:52.070Z,66.00
2019-01-26T08:45:52.078Z,67.30
2019-01-26T08:46:52.093Z,62.60
2019-01-26T08:47:52.105Z,65.30
2019-01-26T08:48:52.109Z,54.80
2019-01-26T08:49:52.124Z,59.30
2019-01-26T08:50:52.141Z,59.80
2019-01-26T08:51:52.143Z,59.80
2019-01-26T08:52:52.155Z,53.90
2019-01-26T08:53:52.172Z,54.90
2019-01-26T08:54:52.225Z,56.40
2019-01-26T08:55:52.183Z,61.30
2019-01-26T08:56:52.212Z,61.20
2019-01-26T08:57:52.200Z,60.10
2019-01-26T08:58:52.211Z,64.10
2019-01-26T08:59:52.225Z,64.40
2019-01-26T09:00:52.241Z,57.60
2019-01-26T09:01:52.244Z,61.00
2019-01-26T09:02:52.256Z,59.40
2019-01-26T09:03:52.265Z,55.00
2019-01-26T09:04:52.278Z,57.40
2019-01-26T09:05:52.284Z,59.50
2019-01-26T09:06:52.293Z,57.50
2019-01-26T09:07:52.308Z,60.80
2019-01-26T09:08:52.317Z,56.90
2019-01-26T09:09:52.326Z,53.30
2019-01-26T09:10:52.333Z,49.60
2019-01-26T09:11:52.348Z,53.60
2019-01-26T09:12:52.354Z,52.60
2019-01-26T09:13:52.373Z,50.50
2019-01-26T09:14:52.378Z,53.10
2019-01-26T09:15:52.400Z,54.30
2019-01-26T09:16:52.401Z,50.70
2019-01-26T09:17:52.411Z,53.00
2019-01-26T09:18:52.425Z,55.70
2019-01-26T09:19:52.438Z,56.00
2019-01-26T09:20:52.438Z,52.30
2019-01-26T09:21:52.449Z,54.30
2019-01-26T09:22:52.460Z,48.80
2019-01-26T09:23:52.472Z,50.20
2019-01-26T09:24:52.476Z,51.70
2019-01-26T09:25:52.500Z,56.30
2019-01-26T09:26:52.704Z,47.50
2019-01-26T09:27:52.514Z,54.30
2019-01-26T09:28:52.526Z,51.90
2019-01-26T09:29:52.530Z,52.50
2019-01-26T09:30:52.541Z,48.30
2019-01-26T09:31:52.553Z,51.40
2019-01-26T09:32:52.561Z,52.10
2019-01-26T09:33:52.572Z,49.60
2019-01-26T09:34:52.584Z,51.20
2019-01-26T09:35:52.598Z,53.50
2019-01-26T09:36:52.602Z,48.50
2019-01-26T09:37:52.614Z,53.80
2019-01-26T09:38:52.633Z,49.60
2019-01-26T09:39:52.669Z,47.10
2019-01-26T09:40:52.645Z,50.90
2019-01-26T09:41:52.658Z,55.00
2019-01-26T09:42:52.667Z,53.40
2019-01-26T09:43:52.674Z,47.20
2019-01-26T09:44:52.690Z,48.60
2019-01-26T09:45:52.699Z,49.60
2019-01-26T09:46:52.715Z,49.50
2019-01-26T09:47:52.723Z,50.10
2019-01-26T09:48:52.734Z,50.00
2019-01-26T09:49:52.737Z,48.00
2019-01-26T09:50:52.748Z,46.00
2019-01-26T09:51:52.761Z,46.90
2019-01-26T09:52:52.775Z,47.90
2019-01-26T09:53:52.785Z,51.90
2019-01-26T09:54:52.793Z,44.20
2019-01-26T09:55:52.802Z,49.10
2019-01-26T09:56:52.806Z,47.30
2019-01-26T09:57:52.815Z,41.40
2019-01-26T09:58:52.831Z,40.10
2019-01-26T09:59:52.835Z,43.80
2019-01-26T10:00:52.849Z,43.60
2019-01-26T10:01:52.858Z,40.70
2019-01-26T10:02:52.873Z,41.10
2019-01-26T10:03:52.881Z,42.20
2019-01-26T10:04:52.888Z,46.20
2019-01-26T10:05:52.901Z,45.90
2019-01-26T10:06:52.916Z,43.30
2019-01-26T10:07:52.919Z,43.10
2019-01-26T10:08:52.930Z,41.40
2019-01-26T10:09:52.959Z,42.20
2019-01-26T10:10:52.953Z,44.30
2019-01-26T10:11:52.969Z,40.30
2019-01-26T10:12:52.974Z,43.10
2019-01-26T10:13:52.989Z,45.10
2019-01-26T10:14:53.002Z,41.70
2019-01-26T10:15:53.006Z,39.80
2019-01-26T10:16:53.031Z,39.80
2019-01-26T10:17:53.033Z,41.60
2019-01-26T10:18:53.672Z,41.50
2019-01-26T10:19:53.047Z,45.40
2019-01-26T10:20:53.060Z,46.00
2019-01-26T10:21:53.066Z,41.30
2019-01-26T10:22:53.079Z,40.90
2019-01-26T10:23:53.095Z,48.00
2019-01-26T10:24:53.097Z,45.40
2019-01-26T10:25:53.112Z,46.30
2019-01-26T10:26:53.122Z,46.80
2019-01-26T10:27:53.130Z,46.10
2019-01-26T10:28:53.140Z,43.50
2019-01-26T10:29:53.151Z,49.70
2019-01-26T10:30:53.160Z,44.60
2019-01-26T10:31:53.174Z,46.40
2019-01-26T10:32:53.186Z,47.50
2019-01-26T10:33:53.196Z,48.80
2019-01-26T10:34:53.203Z,51.00
2019-01-26T10:35:53.218Z,52.20
2019-01-26T10:36:53.226Z,51.90
2019-01-26T10:37:53.234Z,50.50
2019-01-26T10:38:53.247Z,52.00
2019-01-26T10:39:53.257Z,49.20
2019-01-26T10:40:53.265Z,55.30
2019-01-26T10:41:53.290Z,53.20
2019-01-26T10:42:53.293Z,54.60
2019-01-26T10:43:53.353Z,51.00
2019-01-26T10:44:53.314Z,56.10
2019-01-26T10:45:53.319Z,48.60
2019-01-26T10:46:53.329Z,45.80
2019-01-26T10:47:53.347Z,50.30
2019-01-26T10:48:53.357Z,49.10
2019-01-26T10:49:53.360Z,52.80
2019-01-26T10:50:53.374Z,50.80
2019-01-26T10:51:53.383Z,52.10
2019-01-26T10:52:53.393Z,49.00
2019-01-26T10:53:53.404Z,55.30
2019-01-26T10:54:53.426Z,48.40
2019-01-26T10:55:53.430Z,54.80
2019-01-26T10:56:53.436Z,46.40
2019-01-26T10:57:53.450Z,46.20
2019-01-26T10:58:53.457Z,49.40
2019-01-26T10:59:53.465Z,46.50
2019-01-26T11:00:53.477Z,48.50
2019-01-26T11:01:53.490Z,49.40
2019-01-26T11:02:53.499Z,48.10
2019-01-26T11:03:53.511Z,47.00
2019-01-26T11:04:53.521Z,45.70
2019-01-26T11:05:53.531Z,41.20
2019-01-26T11:06:53.541Z,44.70
2019-01-26T11:07:53.552Z,39.10
2019-01-26T11:08:53.562Z,40.00
2019-01-26T11:09:53.574Z,37.30
2019-01-26T11:10:53.587Z,36.10
2019-01-26T11:11:53.599Z,38.90
2019-01-26T11:12:53.603Z,36.10
2019-01-26T11:13:53.617Z,36.10
2019-01-26T11:14:53.623Z,36.70
2019-01-26T11:15:53.639Z,33.90
2019-01-26T11:16:53.645Z,37.40
2019-01-26T11:17:53.660Z,35.80
2019-01-26T11:18:53.672Z,36.50
2019-01-26T11:19:53.675Z,32.50
2019-01-26T11:20:53.692Z,31.90
2019-01-26T11:21:53.698Z,33.10
2019-01-26T11:22:53.708Z,35.00
2019-01-26T11:23:53.722Z,34.30
2019-01-26T11:24:53.728Z,31.20
2019-01-26T11:25:53.738Z,31.60
2019-01-26T11:26:53.755Z,33.20
2019-01-26T11:27:53.761Z,35.10
2019-01-26T11:28:53.777Z,32.20
2019-01-26T11:29:53.782Z,29.50
2019-01-26T11:30:53.794Z,29.10
2019-01-26T11:31:53.812Z,29.20
2019-01-26T11:32:53.816Z,29.40
2019-01-26T11:33:53.826Z,31.30
2019-01-26T11:34:53.838Z,29.50
2019-01-26T11:35:53.854Z,28.80
2019-01-26T11:36:54.094Z,30.00
2019-01-26T11:37:53.974Z,30.90
2019-01-26T11:38:53.876Z,30.20
2019-01-26T11:39:53.888Z,29.30
2019-01-26T11:40:56.848Z,29.40
2019-01-26T11:41:53.910Z,30.60
2019-01-26T11:42:53.917Z,32.40
2019-01-26T11:43:53.932Z,30.40
2019-01-26T11:44:53.942Z,29.90
2019-01-26T11:45:53.956Z,31.20
2019-01-26T11:46:54.547Z,32.70
2019-01-26T11:47:53.976Z,30.90
2019-01-26T11:48:53.999Z,29.60
2019-01-26T11:49:53.994Z,29.60
2019-01-26T11:50:54.003Z,30.20
2019-01-26T11:51:54.015Z,29.30
2019-01-26T11:52:54.029Z,26.80
2019-01-26T11:53:54.036Z,32.40
2019-01-26T11:54:54.049Z,31.30
2019-01-26T11:55:54.060Z,31.90
2019-01-26T11:56:54.069Z,30.90
2019-01-26T11:57:54.077Z,31.80
2019-01-26T11:58:54.097Z,29.00
2019-01-26T11:59:54.101Z,26.90
2019-01-26T12:00:59.288Z,31.70
2019-01-26T12:01:54.131Z,26.30
2019-01-26T12:02:54.135Z,31.80
2019-01-26T12:03:54.149Z,31.40
2019-01-26T12:04:54.159Z,29.90
2019-01-26T12:05:54.163Z,31.10
2019-01-26T12:06:54.177Z,30.20
2019-01-26T12:07:54.187Z,30.60
2019-01-26T12:08:54.194Z,33.90
2019-01-26T12:09:54.212Z,30.60
2019-01-26T12:10:54.219Z,30.30
2019-01-26T12:11:54.230Z,34.50
2019-01-26T12:12:54.241Z,34.60
2019-01-26T12:13:54.249Z,35.80
2019-01-26T12:14:54.263Z,39.60
2019-01-26T12:15:54.274Z,38.60
2019-01-26T12:16:54.281Z,37.80
2019-01-26T12:17:54.299Z,38.70
2019-01-26T12:18:54.348Z,35.30
2019-01-26T12:19:54.317Z,41.20
2019-01-26T12:20:54.326Z,40.80
2019-01-26T12:21:54.338Z,43.00
2019-01-26T12:22:54.352Z,35.10
2019-01-26T12:23:54.358Z,43.50
2019-01-26T12:24:54.366Z,45.70
2019-01-26T12:25:54.385Z,44.20
2019-01-26T12:26:54.391Z,40.80
2019-01-26T12:27:54.398Z,42.50
2019-01-26T12:28:54.412Z,40.20
2019-01-26T12:29:54.423Z,39.90
2019-01-26T12:30:54.433Z,45.60
2019-01-26T12:31:54.443Z,43.40
2019-01-26T12:32:54.458Z,43.20
2019-01-26T12:33:54.466Z,43.60
2019-01-26T12:34:54.478Z,41.90
2019-01-26T12:35:54.487Z,38.90
2019-01-26T12:36:54.495Z,46.00
2019-01-26T12:37:54.508Z,45.90
2019-01-26T12:38:54.518Z,48.60
2019-01-26T12:39:54.534Z,42.20
2019-01-26T12:40:54.543Z,47.90
2019-01-26T12:41:54.551Z,42.70
2019-01-26T12:42:54.559Z,41.30